AirNav   Pilot Hours Calculator
 
 593 users online  

MO28 Blue Springs Heliport
Blue Springs, Missouri, USA

GOING TO BLUE SPRINGS?


FAA INFORMATION EFFECTIVE 07 NOVEMBER 2019

Location

FAA Identifier: MO28
Lat/Long: 39-01-36.8700N 094-15-52.0600W
39-01.614500N 094-15.867667W
39.0269083,-94.2644611
(estimated)
Elevation: 287 ft. / 87 m (estimated)
Variation: 03E (2000)
Time zone: UTC -6 (UTC -5 during Daylight Saving Time)
Zip code: 64014

Heliport Operations

Heliport use: Private use, MEDICAL USE.
Activation date: 12/2000
Control tower: no
ARTCC: KANSAS CITY CENTER
FSS: COLUMBIA FLIGHT SERVICE STATION
Attendance: CONTINUOUS
Wind indicator: yes
Segmented circle: no

Heliport Communications

WX ASOS at LXT (6 nm SW): 124.175 (816-347-9807)
WX ASOS at MKC (16 nm W): PHONE 816-329-2843
WX AWOS-3 at GPH (18 nm N): 120.275 (816-407-3399)

Nearby radio navigation aids

VOR radial/distance  VOR name  Freq  Var
ANXr230/7.5NAPOLEON VORTAC114.0007E
MCIr120/26.9KANSAS CITY VORTAC113.2505E

Heliport Services

Runway Information

Helipad H1

Dimensions: 20 x 20 ft. / 6 x 6 m
Surface: concrete
Latitude: 39-01.614500N
Longitude: 094-15.867667W
Elevation: 287.0 ft.
Traffic pattern: leftleft

Heliport Ownership and Management from official FAA records

Ownership: Privately-owned
Owner: ST. MARY'S HOSPITAL
201 WEST R.D. MIZE RD
BLUE SPRINGS, MO 64014
Phone (816) 655-5542
Manager: JAMES MILAM
201 WEST R.D. MIZE RD
BLUE SPRINGS, MO 64014
Phone 816-655-5541

Additional Remarks

A52-H1 RY H1 60 FT TREES & PLINE 72 FT NORTH; 15 FT BLDG 73 FT SOUTH; 60 FT BLDG 223 FT SOUTH; & 30 FT LGT POLES 59 FT SOUTHEAST OF HELIPAD.
OWNER DESIRES HELIPORT NOT BE CHARTED.
FOR CD CTC KANSAS CITY APCH AT 816-329-2710.

Instrument Procedures

There are no published instrument procedures at MO28.

Some nearby airports with instrument procedures:

3GV - East Kansas City Airport (2 nm E)
KLXT - Lee's Summit Municipal Airport (6 nm SW)
KMKC - Charles B Wheeler Downtown Airport (16 nm W)
KGPH - Midwest National Air Center Airport (18 nm N)
3EX - Excelsior Springs Memorial Airport (19 nm N)
 
Loc | Ops | Rwys | IFR | FBO | Links
Com | Nav | Svcs | Stats | Notes

Kansas City Aviation Department
 
Area around MO28 (Blue Springs Heliport)
 
Road maps at: MapQuest Bing Google
 
Aerial photo
No photo
 
Sectional chart

 
Airport distance calculator
Flying to Blue Springs Heliport? Find the distance to fly.

From to MO28

Sunrise and sunset
Times for 19-Nov-2019
 Local
(UTC-6)
 Zulu
(UTC)
Morning civil twilight06:3712:37
Sunrise07:0613:06
Sunset16:5922:59
Evening civil twilight17:2823:28

Current date and time
Zulu (UTC)  20-Nov-2019 05:41:12
Local (UTC-6)  19-Nov-2019 23:41:12
 
METAR
KLXT 
6nm SW 
200453Z AUTO 14007KT 10SM CLR 11/00 A2996 RMK AO2 SLP147 T01060000
KMKC 
17nm W 
200454Z 00000KT 10SM CLR 10/00 A2995 RMK AO2 SLP141 T01000000
KGPH 
18nm N 
200515Z AUTO 00000KT 10SM CLR 02/00 A2997 RMK AO2
TAF
KMKC 
17nm W 
191725Z 1918/2018 28007KT P6SM FEW250 FM200000 12006KT P6SM SCT250 FM201700 15011G21KT P6SM BKN250
NOTAMs
Click for the latest NOTAMs
NOTAMs are issued by the DoD/FAA and will open in a separate window not controlled by AirNav.

 

 
 

Would you like to see your business listed on this page?

 If your business provides an interesting product or service to pilots, flight crews, aircraft, or users of the Blue Springs Heliport, you should consider listing it here.  To start the listing process, click on the button below
 
Add a business
 

Other Pages about Blue Springs Heliport

Update a link
 
Copyright © AirNav, LLC. All rights reserved. Privacy Policy  Contact